Time;durP1;ratioP1;P1;durP2;ratioP2;P2;SDS_P1;SDS_P2;PMS_P1;PMS_P2;Temp;Humidity;BMP_temperature;BMP_pressure;BME280_temperature;BME280_humidity;BME280_pressure;Samples;Min_cycle;Max_cycle;Signal;HPM_P1;HPM_P2
2023/11/25 00:00:57;;;;;;;36.90;21.47;;;;;;;;;;4366792;32;319744;-83
2023/11/25 00:03:24;;;;;;;39.53;20.47;;;;;;;;;;4358038;32;319608;-83
2023/11/25 00:05:50;;;;;;;34.23;21.83;;;;;;;;;;4367991;32;319712;-82
2023/11/25 00:08:19;;;;;;;36.63;21.23;;;;;;;;;;4367780;32;319472;-82
2023/11/25 00:10:46;;;;;;;36.53;23.43;;;;;;;;;;4356050;32;420414;-83
2023/11/25 00:13:14;;;;;;;49.40;27.60;;;;;;;;;;4376727;32;319879;-83
2023/11/25 00:15:43;;;;;;;41.23;24.60;;;;;;;;;;4371404;32;319313;-83
2023/11/25 00:18:11;;;;;;;47.67;24.17;;;;;;;;;;4378746;32;319525;-82
2023/11/25 00:20:38;;;;;;;37.20;21.50;;;;;;;;;;4366537;32;319309;-82
2023/11/25 00:23:05;;;;;;;36.63;21.50;;;;;;;;;;4374055;32;319588;-83
2023/11/25 00:25:32;;;;;;;37.50;21.13;;;;;;;;;;4356725;32;319385;-83
2023/11/25 00:27:59;;;;;;;40.97;21.43;;;;;;;;;;4367305;32;319992;-83
2023/11/25 00:30:26;;;;;;;39.30;22.10;;;;;;;;;;4357453;32;319570;-83
2023/11/25 00:32:55;;;;;;;47.60;20.07;;;;;;;;;;4367257;32;319745;-82
2023/11/25 00:35:22;;;;;;;36.23;19.40;;;;;;;;;;4353912;32;319780;-83
2023/11/25 00:37:49;;;;;;;32.07;19.17;;;;;;;;;;4366791;32;319186;-83
2023/11/25 00:40:16;;;;;;;36.87;22.33;;;;;;;;;;4365966;32;319376;-82
2023/11/25 00:42:43;;;;;;;41.47;22.13;;;;;;;;;;4355250;32;318945;-83
2023/11/25 00:45:11;;;;;;;39.07;21.17;;;;;;;;;;4367052;32;319857;-83
2023/11/25 00:47:40;;;;;;;33.63;20.87;;;;;;;;;;4356060;32;318988;-83
2023/11/25 00:50:10;;;;;;;39.00;18.90;;;;;;;;;;4367190;32;320075;-85
2023/11/25 00:52:37;;;;;;;30.83;16.17;;;;;;;;;;4355789;32;319057;-82
2023/11/25 00:55:05;;;;;;;27.10;14.37;;;;;;;;;;4364978;32;318632;-82
2023/11/25 00:57:32;;;;;;;31.70;17.57;;;;;;;;;;4356615;32;319597;-83
2023/11/25 00:59:59;;;;;;;33.00;19.23;;;;;;;;;;4366996;32;319480;-82
2023/11/25 01:02:27;;;;;;;34.10;17.77;;;;;;;;;;4356973;32;329200;-83
2023/11/25 01:04:54;;;;;;;29.90;17.30;;;;;;;;;;4366187;32;318671;-83
2023/11/25 01:07:23;;;;;;;39.03;17.90;;;;;;;;;;4356731;32;319608;-83
2023/11/25 01:09:50;;;;;;;41.27;17.87;;;;;;;;;;4366582;32;332152;-83
2023/11/25 01:12:17;;;;;;;26.30;15.67;;;;;;;;;;4365769;32;319587;-83
2023/11/25 01:14:44;;;;;;;27.37;16.80;;;;;;;;;;4350395;32;353533;-82
2023/11/25 01:17:11;;;;;;;29.30;16.77;;;;;;;;;;4366540;32;319989;-83
2023/11/25 01:19:38;;;;;;;30.53;16.83;;;;;;;;;;4356782;32;319382;-83
2023/11/25 01:22:05;;;;;;;27.00;17.30;;;;;;;;;;4366307;32;319512;-83
2023/11/25 01:24:33;;;;;;;36.80;17.17;;;;;;;;;;4355695;32;319805;-85
2023/11/25 01:27:00;;;;;;;25.17;17.10;;;;;;;;;;4365149;32;319680;-83
2023/11/25 01:29:27;;;;;;;34.37;19.47;;;;;;;;;;4355508;32;319339;-83
2023/11/25 01:31:54;;;;;;;31.77;16.83;;;;;;;;;;4366350;32;329706;-84
2023/11/25 01:34:21;;;;;;;38.03;17.43;;;;;;;;;;4356139;32;319867;-83
2023/11/25 01:36:48;;;;;;;29.30;17.33;;;;;;;;;;4365283;32;319429;-83
2023/11/25 01:39:15;;;;;;;44.77;19.83;;;;;;;;;;4365565;32;319457;-85
2023/11/25 01:41:44;;;;;;;29.70;16.63;;;;;;;;;;4353736;32;353436;-83
2023/11/25 01:44:12;;;;;;;26.43;16.47;;;;;;;;;;4365439;32;319615;-83
2023/11/25 01:46:39;;;;;;;28.93;16.63;;;;;;;;;;4356390;32;319400;-85
2023/11/25 01:49:08;;;;;;;35.57;17.33;;;;;;;;;;4366543;32;319160;-82
2023/11/25 01:51:36;;;;;;;32.10;17.40;;;;;;;;;;4354677;32;344823;-83
2023/11/25 01:54:05;;;;;;;31.77;18.80;;;;;;;;;;4366399;32;319422;-83
2023/11/25 01:56:34;;;;;;;35.80;17.23;;;;;;;;;;4355131;32;319188;-83
2023/11/25 01:59:04;;;;;;;28.20;14.40;;;;;;;;;;4365308;32;319169;-83
2023/11/25 02:01:31;;;;;;;38.83;17.90;;;;;;;;;;4354252;32;356480;-83
2023/11/25 02:03:58;;;;;;;30.63;16.87;;;;;;;;;;4365651;32;318595;-83
2023/11/25 02:06:25;;;;;;;24.63;15.57;;;;;;;;;;4356369;32;319296;-83
2023/11/25 02:08:52;;;;;;;26.33;11.67;;;;;;;;;;4353379;32;319336;-85
2023/11/25 02:11:21;;;;;;;28.00;17.13;;;;;;;;;;4354108;32;318966;-86
2023/11/25 02:13:47;;;;;;;38.30;16.43;;;;;;;;;;4369080;32;319734;-83
2023/11/25 02:16:16;;;;;;;35.00;14.60;;;;;;;;;;4368547;32;318566;-83
2023/11/25 02:18:43;;;;;;;18.73;12.47;;;;;;;;;;4358828;32;319416;-83
2023/11/25 02:21:10;;;;;;;17.60;12.20;;;;;;;;;;4368437;32;319781;-83
2023/11/25 02:23:39;;;;;;;24.30;13.63;;;;;;;;;;4358527;32;320206;-83
2023/11/25 02:26:08;;;;;;;28.83;13.87;;;;;;;;;;4368506;32;319391;-84
2023/11/25 02:28:35;;;;;;;24.23;12.93;;;;;;;;;;4358970;32;319200;-83
2023/11/25 02:31:02;;;;;;;16.90;12.17;;;;;;;;;;4367864;32;319859;-83
2023/11/25 02:33:37;;;;;;;20.77;11.77;;;;;;;;;;4359130;32;319308;-84
2023/11/25 02:36:07;;;;;;;26.90;12.90;;;;;;;;;;4367755;32;319465;-83
2023/11/25 02:38:35;;;;;;;25.53;13.33;;;;;;;;;;4358683;32;319568;-84
2023/11/25 02:41:04;;;;;;;21.17;12.20;;;;;;;;;;4368436;32;319727;-83
2023/11/25 02:43:31;;;;;;;22.03;11.00;;;;;;;;;;4358836;32;319451;-83
2023/11/25 02:45:58;;;;;;;20.47;11.67;;;;;;;;;;4367337;32;319389;-83
2023/11/25 02:48:25;;;;;;;14.13;9.43;;;;;;;;;;4344858;32;319061;-84
2023/11/25 02:50:53;;;;;;;21.20;11.47;;;;;;;;;;4367728;32;318297;-83
2023/11/25 02:53:20;;;;;;;17.67;10.10;;;;;;;;;;4357971;32;319536;-84
2023/11/25 02:55:47;;;;;;;22.90;11.20;;;;;;;;;;4367268;32;319940;-84
2023/11/25 02:58:17;;;;;;;16.80;9.43;;;;;;;;;;4367401;32;319911;-83
2023/11/25 03:00:43;;;;;;;22.77;10.33;;;;;;;;;;4358254;32;318835;-83
2023/11/25 03:03:16;;;;;;;19.97;10.40;;;;;;;;;;4367485;32;319633;-85
2023/11/25 03:05:47;;;;;;;16.37;8.53;;;;;;;;;;4357500;32;319491;-84
2023/11/25 03:08:16;;;;;;;19.47;9.63;;;;;;;;;;4366245;32;353544;-85
2023/11/25 03:10:46;;;;;;;22.87;11.70;;;;;;;;;;4356967;32;318538;-85
2023/11/25 03:13:15;;;;;;;21.53;15.07;;;;;;;;;;4367873;32;320194;-85
2023/11/25 03:15:42;;;;;;;36.27;20.07;;;;;;;;;;4358079;32;319933;-84
2023/11/25 03:18:10;;;;;;;36.53;19.93;;;;;;;;;;4366772;32;319586;-85
2023/11/25 03:20:40;;;;;;;45.13;23.70;;;;;;;;;;4356721;32;338804;-83
2023/11/25 03:23:07;;;;;;;35.53;20.93;;;;;;;;;;4368770;32;319657;-87
2023/11/25 03:25:34;;;;;;;22.90;13.37;;;;;;;;;;4356718;32;319444;-87
2023/11/25 03:28:07;;;;;;;23.50;11.17;;;;;;;;;;4367480;32;319502;-86
2023/11/25 03:30:36;;;;;;;16.00;11.80;;;;;;;;;;4356518;32;341266;-87
2023/11/25 03:33:04;;;;;;;20.03;9.40;;;;;;;;;;4368526;32;319891;-87
2023/11/25 03:35:31;;;;;;;16.30;9.83;;;;;;;;;;4358942;32;318482;-87
2023/11/25 03:37:59;;;;;;;26.77;10.33;;;;;;;;;;4367049;32;318244;-87
2023/11/25 03:40:26;;;;;;;24.53;11.20;;;;;;;;;;4357958;32;319534;-87
2023/11/25 03:42:53;;;;;;;17.50;10.60;;;;;;;;;;4368147;32;319008;-87
2023/11/25 03:45:21;;;;;;;20.37;10.67;;;;;;;;;;4357060;32;319417;-87
2023/11/25 03:47:50;;;;;;;20.50;8.83;;;;;;;;;;4367653;32;319579;-87
2023/11/25 03:50:17;;;;;;;16.00;8.80;;;;;;;;;;4367194;32;318485;-87
2023/11/25 03:52:45;;;;;;;20.83;12.53;;;;;;;;;;4354256;32;419492;-86
2023/11/25 03:55:12;;;;;;;20.77;13.70;;;;;;;;;;4367201;32;335740;-86
2023/11/25 03:57:41;;;;;;;21.23;11.97;;;;;;;;;;4356110;32;342904;-87
2023/11/25 04:00:14;;;;;;;18.50;10.67;;;;;;;;;;4367232;32;348895;-84
2023/11/25 04:02:42;;;;;;;20.30;9.93;;;;;;;;;;4357637;32;319474;-87
2023/11/25 04:05:11;;;;;;;19.83;11.03;;;;;;;;;;4367401;32;339128;-86
2023/11/25 04:07:38;;;;;;;16.73;9.83;;;;;;;;;;4357617;32;319482;-87
2023/11/25 04:10:12;;;;;;;22.30;12.97;;;;;;;;;;4366249;32;317680;-87
2023/11/25 04:12:40;;;;;;;22.67;12.50;;;;;;;;;;4357654;32;319463;-87
2023/11/25 04:15:09;;;;;;;24.53;13.30;;;;;;;;;;4367240;32;319474;-86
2023/11/25 04:17:36;;;;;;;22.80;12.43;;;;;;;;;;4357421;32;320253;-86
2023/11/25 04:20:12;;;;;;;18.87;12.07;;;;;;;;;;4370943;32;319767;-86
2023/11/25 04:22:41;;;;;;;17.80;13.17;;;;;;;;;;4375391;32;318285;-87
2023/11/25 04:25:09;;;;;;;21.60;12.53;;;;;;;;;;4381359;32;319453;-86
2023/11/25 04:27:36;;;;;;;34.00;14.47;;;;;;;;;;4372137;32;319306;-87
2023/11/25 04:30:05;;;;;;;21.67;13.53;;;;;;;;;;4367429;32;319171;-86
2023/11/25 04:32:32;;;;;;;25.33;14.37;;;;;;;;;;4358269;32;319325;-86
2023/11/25 04:34:59;;;;;;;24.47;13.67;;;;;;;;;;4368057;32;320104;-87
2023/11/25 04:37:26;;;;;;;27.97;14.53;;;;;;;;;;4357921;32;319445;-85
2023/11/25 04:39:54;;;;;;;27.67;15.03;;;;;;;;;;4365562;32;336628;-86
2023/11/25 04:42:21;;;;;;;21.17;13.13;;;;;;;;;;4356526;32;319623;-85
2023/11/25 04:44:48;;;;;;;28.13;14.67;;;;;;;;;;4366174;32;320523;-86
2023/11/25 04:47:15;;;;;;;26.10;16.00;;;;;;;;;;4366089;32;321734;-87
2023/11/25 04:49:43;;;;;;;31.63;18.50;;;;;;;;;;4356267;32;319714;-86
2023/11/25 04:52:10;;;;;;;30.87;17.30;;;;;;;;;;4367720;32;318858;-86
2023/11/25 04:54:38;;;;;;;31.27;17.67;;;;;;;;;;4357631;32;319388;-87
2023/11/25 04:57:06;;;;;;;29.47;16.90;;;;;;;;;;4353173;32;318985;-86
2023/11/25 04:59:34;;;;;;;30.73;20.43;;;;;;;;;;4357480;32;319580;-87
2023/11/25 05:02:01;;;;;;;30.10;19.53;;;;;;;;;;4366155;32;319785;-86
2023/11/25 05:04:28;;;;;;;36.43;21.07;;;;;;;;;;4357589;32;319514;-84
2023/11/25 05:06:55;;;;;;;28.67;19.90;;;;;;;;;;4367170;32;319482;-84
2023/11/25 05:09:25;;;;;;;28.70;19.13;;;;;;;;;;4357570;32;319632;-85
2023/11/25 05:11:52;;;;;;;29.07;19.10;;;;;;;;;;4366335;32;319592;-84
2023/11/25 05:14:22;;;;;;;28.97;17.23;;;;;;;;;;4362300;32;319685;-86
2023/11/25 05:16:49;;;;;;;31.17;16.53;;;;;;;;;;4367611;32;319744;-85
2023/11/25 05:19:16;;;;;;;22.03;12.73;;;;;;;;;;4367448;32;319842;-84
2023/11/25 05:21:43;;;;;;;25.77;12.10;;;;;;;;;;4356487;32;319037;-84
2023/11/25 05:24:10;;;;;;;23.83;15.03;;;;;;;;;;4364413;32;359560;-85
2023/11/25 05:26:37;;;;;;;24.47;17.00;;;;;;;;;;4356024;32;319639;-84
2023/11/25 05:29:05;;;;;;;25.17;15.93;;;;;;;;;;4366269;32;319824;-84
2023/11/25 05:31:34;;;;;;;33.63;18.83;;;;;;;;;;4357002;32;320070;-84
2023/11/25 05:34:03;;;;;;;27.40;17.93;;;;;;;;;;4367218;32;319810;-84
2023/11/25 05:36:31;;;;;;;25.13;17.63;;;;;;;;;;4357645;32;318948;-85
2023/11/25 05:38:57;;;;;;;32.40;18.60;;;;;;;;;;4365778;32;319800;-84
2023/11/25 05:41:25;;;;;;;29.63;16.03;;;;;;;;;;4356628;32;318819;-85
2023/11/25 05:43:52;;;;;;;27.60;13.93;;;;;;;;;;4370104;32;320097;-84
2023/11/25 05:46:23;;;;;;;21.43;15.60;;;;;;;;;;4370453;32;318923;-85
2023/11/25 05:48:53;;;;;;;29.03;18.43;;;;;;;;;;4340910;32;418675;-85
2023/11/25 05:51:20;;;;;;;31.03;22.23;;;;;;;;;;4345464;32;319656;-85
2023/11/25 05:53:47;;;;;;;47.57;27.33;;;;;;;;;;4354459;32;319186;-85
2023/11/25 05:56:14;;;;;;;51.23;32.47;;;;;;;;;;4354656;32;343592;-85
2023/11/25 05:58:41;;;;;;;47.33;30.63;;;;;;;;;;4355987;32;319081;-84
2023/11/25 06:01:08;;;;;;;50.17;32.57;;;;;;;;;;4369183;32;319120;-85
2023/11/25 06:03:35;;;;;;;49.77;32.60;;;;;;;;;;4358905;32;319877;-85
2023/11/25 06:06:07;;;;;;;59.70;36.20;;;;;;;;;;4369012;32;319271;-84
2023/11/25 06:08:34;;;;;;;48.10;33.70;;;;;;;;;;4358558;32;320143;-85
2023/11/25 06:11:01;;;;;;;59.23;35.03;;;;;;;;;;4367982;32;319986;-84
2023/11/25 06:13:28;;;;;;;54.33;35.07;;;;;;;;;;4357335;32;319973;-85
2023/11/25 06:15:56;;;;;;;59.97;38.83;;;;;;;;;;4367462;32;319860;-85
2023/11/25 06:18:24;;;;;;;54.57;38.77;;;;;;;;;;4358790;32;319561;-85
2023/11/25 06:20:51;;;;;;;61.30;36.83;;;;;;;;;;4368974;32;319665;-85
2023/11/25 06:23:19;;;;;;;49.73;32.67;;;;;;;;;;4368636;32;319710;-85
2023/11/25 06:25:46;;;;;;;52.10;30.00;;;;;;;;;;4355294;32;418102;-85
2023/11/25 06:28:14;;;;;;;46.63;28.47;;;;;;;;;;4368997;32;319430;-85
2023/11/25 06:30:41;;;;;;;56.87;34.03;;;;;;;;;;4343704;32;319593;-85
2023/11/25 06:33:08;;;;;;;54.37;34.17;;;;;;;;;;4367307;32;320329;-85
2023/11/25 06:35:36;;;;;;;61.93;39.80;;;;;;;;;;4358586;32;319744;-85
2023/11/25 06:38:04;;;;;;;41.97;22.03;;;;;;;;;;4367349;32;319626;-84
2023/11/25 06:40:35;;;;;;;21.37;13.30;;;;;;;;;;4358062;32;319967;-85
2023/11/25 06:43:02;;;;;;;6.83;4.63;;;;;;;;;;4368259;32;320314;-84
2023/11/25 06:45:29;;;;;;;5.03;3.13;;;;;;;;;;4356740;32;317091;-85
2023/11/25 06:47:56;;;;;;;5.50;3.07;;;;;;;;;;4367505;32;317783;-84
2023/11/25 06:50:23;;;;;;;7.53;2.73;;;;;;;;;;4358326;32;317612;-85
2023/11/25 06:52:50;;;;;;;8.33;3.30;;;;;;;;;;4368520;32;317653;-85
2023/11/25 06:55:19;;;;;;;5.80;3.60;;;;;;;;;;4368282;32;316876;-85
2023/11/25 06:57:49;;;;;;;7.30;3.83;;;;;;;;;;4354967;32;418001;-84
2023/11/25 07:00:17;;;;;;;13.90;6.30;;;;;;;;;;4367070;32;316953;-87
2023/11/25 07:02:43;;;;;;;13.17;7.33;;;;;;;;;;4357432;32;318460;-86
2023/11/25 07:05:13;;;;;;;3.17;2.40;;;;;;;;;;4367738;32;353255;-86
2023/11/25 07:07:40;;;;;;;3.23;2.03;;;;;;;;;;4358812;32;317793;-86
2023/11/25 07:10:10;;;;;;;10.20;3.63;;;;;;;;;;4368313;32;317467;-86
2023/11/25 07:12:37;;;;;;;9.70;4.17;;;;;;;;;;4357444;32;318608;-86
2023/11/25 07:15:06;;;;;;;5.90;3.13;;;;;;;;;;4367671;32;317542;-86
2023/11/25 07:17:37;;;;;;;6.07;3.20;;;;;;;;;;4357252;32;318780;-86
2023/11/25 07:20:05;;;;;;;11.60;6.77;;;;;;;;;;4362664;32;317731;-87
2023/11/25 07:22:32;;;;;;;6.03;4.00;;;;;;;;;;4351623;32;318690;-86
2023/11/25 07:24:59;;;;;;;4.23;2.60;;;;;;;;;;4361745;32;317606;-86
2023/11/25 07:27:26;;;;;;;6.03;3.10;;;;;;;;;;4357242;32;317569;-85
2023/11/25 07:29:54;;;;;;;6.53;4.00;;;;;;;;;;4364380;32;317887;-85
2023/11/25 07:32:22;;;;;;;10.70;6.47;;;;;;;;;;4349253;32;317730;-86
2023/11/25 07:34:49;;;;;;;9.13;5.27;;;;;;;;;;4358071;32;320014;-87
2023/11/25 07:37:17;;;;;;;4.73;3.20;;;;;;;;;;4367027;32;317378;-86
2023/11/25 07:39:45;;;;;;;7.50;3.53;;;;;;;;;;4351868;32;317115;-86
2023/11/25 07:42:12;;;;;;;6.10;3.90;;;;;;;;;;4368372;32;316887;-84
2023/11/25 07:44:39;;;;;;;7.33;3.80;;;;;;;;;;4355922;32;317611;-85
2023/11/25 07:47:06;;;;;;;12.40;6.13;;;;;;;;;;4366261;32;318105;-85
2023/11/25 07:49:34;;;;;;;15.60;6.00;;;;;;;;;;4357222;32;318552;-86
2023/11/25 07:52:01;;;;;;;4.80;2.80;;;;;;;;;;4368563;32;318939;-88
2023/11/25 07:54:29;;;;;;;2.67;2.07;;;;;;;;;;4356261;32;317845;-85
2023/11/25 07:56:56;;;;;;;3.67;2.57;;;;;;;;;;4366113;32;343177;-86
2023/11/25 07:59:23;;;;;;;3.53;2.10;;;;;;;;;;4346684;32;323843;-86
2023/11/25 08:01:51;;;;;;;5.73;2.83;;;;;;;;;;4359880;32;357707;-86
2023/11/25 08:04:18;;;;;;;5.23;2.20;;;;;;;;;;4367437;32;316276;-85
2023/11/25 08:06:47;;;;;;;2.97;1.93;;;;;;;;;;4347504;32;416658;-86
2023/11/25 08:09:14;;;;;;;6.67;3.47;;;;;;;;;;4363846;32;316547;-86
2023/11/25 08:11:41;;;;;;;4.37;3.47;;;;;;;;;;4357317;32;317128;-86
2023/11/25 08:14:08;;;;;;;17.37;8.40;;;;;;;;;;4366705;32;316626;-85
2023/11/25 08:16:35;;;;;;;13.50;9.47;;;;;;;;;;4357463;32;317512;-86
2023/11/25 08:19:03;;;;;;;19.00;10.10;;;;;;;;;;4361466;32;317670;-85
2023/11/25 08:21:30;;;;;;;89.70;47.10;;;;;;;;;;4352380;32;318631;-84
2023/11/25 08:24:00;;;;;;;31.63;20.73;;;;;;;;;;4367323;32;318753;-84
2023/11/25 08:26:27;;;;;;;29.60;20.60;;;;;;;;;;4358525;32;318535;-86
2023/11/25 08:28:55;;;;;;;19.27;14.17;;;;;;;;;;4376556;32;317779;-84
2023/11/25 08:31:23;;;;;;;24.83;17.37;;;;;;;;;;4370918;32;318520;-85
2023/11/25 08:33:50;;;;;;;9.80;6.97;;;;;;;;;;4375176;32;318148;-86
2023/11/25 08:36:17;;;;;;;9.53;5.73;;;;;;;;;;4374323;32;316290;-87
2023/11/25 08:38:44;;;;;;;5.13;4.33;;;;;;;;;;4361169;32;316655;-87
2023/11/25 08:41:13;;;;;;;14.97;8.33;;;;;;;;;;4369315;32;316512;-86
2023/11/25 08:43:43;;;;;;;14.70;7.77;;;;;;;;;;4356524;32;317023;-87
2023/11/25 08:46:10;;;;;;;7.17;4.97;;;;;;;;;;4366465;32;316682;-84
2023/11/25 08:48:37;;;;;;;5.73;3.67;;;;;;;;;;4356192;32;316522;-84
2023/11/25 08:51:05;;;;;;;3.30;3.00;;;;;;;;;;4367956;32;316223;-82
2023/11/25 08:53:32;;;;;;;5.40;2.73;;;;;;;;;;4357294;32;316788;-83
2023/11/25 08:56:02;;;;;;;3.67;2.60;;;;;;;;;;4367712;32;316434;-83
2023/11/25 08:58:30;;;;;;;2.57;2.03;;;;;;;;;;4356600;32;316939;-83
2023/11/25 09:00:58;;;;;;;1.93;1.40;;;;;;;;;;4367485;32;316488;-82
2023/11/25 09:03:25;;;;;;;2.83;1.70;;;;;;;;;;4355772;32;372654;-83
2023/11/25 09:05:51;;;;;;;2.37;1.67;;;;;;;;;;4366615;32;348732;-84
2023/11/25 09:08:18;;;;;;;2.23;1.50;;;;;;;;;;4367367;32;316585;-82
2023/11/25 09:10:45;;;;;;;1.67;1.57;;;;;;;;;;4354647;32;416990;-84
2023/11/25 09:13:12;;;;;;;3.17;2.07;;;;;;;;;;4367516;32;316777;-84
2023/11/25 09:15:40;;;;;;;2.07;1.50;;;;;;;;;;4358601;32;316327;-84
2023/11/25 09:18:07;;;;;;;4.37;3.30;;;;;;;;;;4370498;32;316666;-84
2023/11/25 09:20:36;;;;;;;1.60;1.37;;;;;;;;;;4360683;32;316614;-88
2023/11/25 09:23:03;;;;;;;3.33;1.93;;;;;;;;;;4370529;32;316495;-87
2023/11/25 09:25:31;;;;;;;3.37;2.83;;;;;;;;;;4360646;32;317183;-82
2023/11/25 09:27:58;;;;;;;7.13;4.73;;;;;;;;;;4369587;32;316468;-83
2023/11/25 09:30:26;;;;;;;6.13;4.07;;;;;;;;;;4358431;32;316587;-83
2023/11/25 09:32:54;;;;;;;8.87;6.17;;;;;;;;;;4370558;32;316693;-82
2023/11/25 09:35:22;;;;;;;5.00;3.27;;;;;;;;;;4359152;32;316502;-82
2023/11/25 09:37:50;;;;;;;5.00;3.17;;;;;;;;;;4369116;32;316741;-85
2023/11/25 09:40:19;;;;;;;5.13;3.70;;;;;;;;;;4358590;32;315796;-84
2023/11/25 09:42:47;;;;;;;8.93;3.30;;;;;;;;;;4343532;32;417326;-83
2023/11/25 09:45:16;;;;;;;7.20;4.30;;;;;;;;;;4368883;32;315986;-86
2023/11/25 09:47:44;;;;;;;4.37;2.70;;;;;;;;;;4356929;32;316341;-86
2023/11/25 09:50:14;;;;;;;2.83;1.90;;;;;;;;;;4368666;32;315732;-87
2023/11/25 09:52:48;;;;;;;3.30;2.53;;;;;;;;;;4357743;32;320779;-85
2023/11/25 09:55:18;;;;;;;2.30;1.77;;;;;;;;;;4370075;32;315619;-84
2023/11/25 09:57:46;;;;;;;6.13;2.93;;;;;;;;;;4358445;32;387169;-86
2023/11/25 10:00:16;;;;;;;3.97;2.83;;;;;;;;;;4368887;32;316451;-85
2023/11/25 10:02:45;;;;;;;7.17;4.43;;;;;;;;;;4357646;32;316701;-84
2023/11/25 10:05:18;;;;;;;5.43;2.90;;;;;;;;;;4369545;32;315757;-86
2023/11/25 10:07:45;;;;;;;2.93;1.80;;;;;;;;;;4356404;32;415157;-86
2023/11/25 10:10:20;;;;;;;3.63;2.67;;;;;;;;;;4367582;32;316802;-85
2023/11/25 10:12:49;;;;;;;2.63;2.00;;;;;;;;;;4355357;32;415881;-85
2023/11/25 10:15:16;;;;;;;2.60;1.70;;;;;;;;;;4369552;32;315570;-85
2023/11/25 10:17:44;;;;;;;2.10;1.60;;;;;;;;;;4353393;32;339867;-85
2023/11/25 10:20:18;;;;;;;2.10;1.87;;;;;;;;;;4377730;32;315999;-85
2023/11/25 10:22:49;;;;;;;2.87;2.30;;;;;;;;;;4356469;32;414928;-86
2023/11/25 10:25:18;;;;;;;2.40;2.20;;;;;;;;;;4369463;32;315405;-85
2023/11/25 10:27:45;;;;;;;3.43;2.70;;;;;;;;;;4355453;32;417357;-84
2023/11/25 10:30:17;;;;;;;5.73;3.40;;;;;;;;;;4369308;32;316245;-87
2023/11/25 10:32:44;;;;;;;8.90;4.97;;;;;;;;;;4358023;32;316361;-86
2023/11/25 10:35:14;;;;;;;11.43;6.70;;;;;;;;;;4369073;32;315970;-85
2023/11/25 10:37:42;;;;;;;15.37;7.90;;;;;;;;;;4359135;32;317125;-84
2023/11/25 10:40:10;;;;;;;16.47;9.70;;;;;;;;;;4367767;32;316755;-86
2023/11/25 10:42:42;;;;;;;17.83;10.50;;;;;;;;;;4358884;32;317835;-85
2023/11/25 10:45:15;;;;;;;16.27;11.27;;;;;;;;;;4368365;32;318088;-85
2023/11/25 10:47:43;;;;;;;34.43;22.17;;;;;;;;;;4357668;32;318544;-84
2023/11/25 10:50:10;;;;;;;54.43;35.30;;;;;;;;;;4368798;32;317508;-84
2023/11/25 10:52:40;;;;;;;25.60;18.53;;;;;;;;;;4357784;32;317232;-86
2023/11/25 10:55:09;;;;;;;12.10;10.13;;;;;;;;;;4368979;32;318366;-84
2023/11/25 10:57:36;;;;;;;5.40;4.50;;;;;;;;;;4358299;32;359932;-84
2023/11/25 11:00:10;;;;;;;5.33;3.43;;;;;;;;;;4369482;32;316020;-83
2023/11/25 11:02:44;;;;;;;6.13;4.10;;;;;;;;;;4357697;32;316145;-85
2023/11/25 11:05:11;;;;;;;3.97;2.57;;;;;;;;;;4369196;32;316073;-85
2023/11/25 11:07:47;;;;;;;4.47;2.60;;;;;;;;;;4358673;32;316311;-84
2023/11/25 11:10:18;;;;;;;19.37;12.23;;;;;;;;;;4367631;32;350692;-83
2023/11/25 11:13:01;;;;;;;12.47;7.60;;;;;;;;;;4351810;32;417332;-85
2023/11/25 11:15:31;;;;;;;7.13;4.90;;;;;;;;;;4369978;32;329342;-81
2023/11/25 11:18:08;;;;;;;5.40;4.03;;;;;;;;;;4382836;32;330288;-81
2023/11/25 11:20:42;;;;;;;9.00;6.53;;;;;;;;;;4373075;32;345387;-81
2023/11/25 11:23:11;;;;;;;8.30;4.87;;;;;;;;;;4379961;32;316237;-80
2023/11/25 11:25:45;;;;;;;5.43;3.67;;;;;;;;;;4361973;32;316039;-93
2023/11/25 11:28:22;;;;;;;8.70;4.90;;;;;;;;;;4369629;32;315958;-89
2023/11/25 11:31:40;;;;;;;9.63;5.53;;;;;;;;;;4357885;32;417708;-80
2023/11/25 11:34:08;;;;;;;9.10;5.97;;;;;;;;;;4298010;33;416816;-88
2023/11/25 11:36:36;;;;;;;10.83;7.93;;;;;;;;;;4345587;32;318797;-89
2023/11/25 11:39:05;;;;;;;8.97;6.27;;;;;;;;;;4368132;32;317622;-80
2023/11/25 11:41:32;;;;;;;8.37;6.07;;;;;;;;;;4358359;32;344280;-83
2023/11/25 11:44:03;;;;;;;7.77;4.13;;;;;;;;;;4371462;32;316360;-82
2023/11/25 11:46:31;;;;;;;4.87;3.30;;;;;;;;;;4359705;32;316087;-85
2023/11/25 11:49:00;;;;;;;3.10;2.53;;;;;;;;;;4368337;32;315812;-84
2023/11/25 11:51:27;;;;;;;6.83;3.00;;;;;;;;;;4358267;32;315679;-85
2023/11/25 11:54:27;;;;;;;5.10;3.60;;;;;;;;;;4367412;32;315471;-84
2023/11/25 11:57:01;;;;;;;6.10;3.97;;;;;;;;;;4351806;32;416413;-86
2023/11/25 12:00:00;;;;;;;6.87;3.97;;;;;;;;;;4358584;32;316441;-83
2023/11/25 12:02:31;;;;;;;11.60;6.10;;;;;;;;;;4356508;32;316019;-83
2023/11/25 12:04:59;;;;;;;7.20;4.97;;;;;;;;;;4368292;32;316879;-83
2023/11/25 12:07:26;;;;;;;6.27;3.37;;;;;;;;;;4356755;32;316324;-84
2023/11/25 12:09:55;;;;;;;9.23;5.53;;;;;;;;;;4366466;32;316003;-83
2023/11/25 12:12:23;;;;;;;12.77;7.93;;;;;;;;;;4351541;32;316243;-83
2023/11/25 12:14:50;;;;;;;11.17;7.37;;;;;;;;;;4367480;32;317327;-84
2023/11/25 12:17:18;;;;;;;14.93;8.47;;;;;;;;;;4367840;32;317305;-83
2023/11/25 12:19:45;;;;;;;13.67;7.37;;;;;;;;;;4356851;32;388117;-83
2023/11/25 12:22:12;;;;;;;11.67;7.17;;;;;;;;;;4382073;32;346973;-83
2023/11/25 12:24:41;;;;;;;12.67;6.77;;;;;;;;;;4367225;32;317252;-83
2023/11/25 12:27:11;;;;;;;8.03;4.33;;;;;;;;;;4371016;32;326920;-82
2023/11/25 12:29:38;;;;;;;10.13;5.87;;;;;;;;;;4362504;32;316111;-83
2023/11/25 12:32:06;;;;;;;13.40;7.93;;;;;;;;;;4372531;32;317596;-85
2023/11/25 12:34:33;;;;;;;12.73;8.87;;;;;;;;;;4365954;32;316600;-86
2023/11/25 12:37:01;;;;;;;15.10;9.03;;;;;;;;;;4373017;32;316432;-84
2023/11/25 12:39:28;;;;;;;14.23;8.63;;;;;;;;;;4364078;32;344825;-86
2023/11/25 12:41:55;;;;;;;11.13;7.40;;;;;;;;;;4368294;32;316144;-87
2023/11/25 12:44:23;;;;;;;19.73;11.23;;;;;;;;;;4356289;32;317438;-87
2023/11/25 12:47:01;;;;;;;12.40;8.63;;;;;;;;;;4366209;32;318491;-88
2023/11/25 12:49:29;;;;;;;15.27;8.80;;;;;;;;;;4340803;32;316434;-87
2023/11/25 12:51:56;;;;;;;10.10;6.90;;;;;;;;;;4349531;32;317202;-83
2023/11/25 12:54:23;;;;;;;15.47;9.80;;;;;;;;;;4339083;32;317441;-85
2023/11/25 12:56:52;;;;;;;15.53;10.27;;;;;;;;;;4349570;32;334225;-84
2023/11/25 12:59:26;;;;;;;19.93;10.57;;;;;;;;;;4350754;32;318224;-85
2023/11/25 13:01:54;;;;;;;14.20;9.57;;;;;;;;;;4339834;32;418976;-84
2023/11/25 13:04:21;;;;;;;19.57;11.23;;;;;;;;;;4342445;32;317275;-86
2023/11/25 13:06:48;;;;;;;22.03;13.30;;;;;;;;;;4351941;32;317287;-84
2023/11/25 13:09:19;;;;;;;29.53;17.70;;;;;;;;;;4358970;32;318688;-86
2023/11/25 13:11:47;;;;;;;24.67;16.30;;;;;;;;;;4353703;32;419425;-85
2023/11/25 13:14:16;;;;;;;23.33;14.47;;;;;;;;;;4366988;32;318365;-84
2023/11/25 13:16:45;;;;;;;28.30;16.70;;;;;;;;;;4357911;32;317646;-85
2023/11/25 13:19:12;;;;;;;32.50;19.23;;;;;;;;;;4366134;32;318713;-86
2023/11/25 13:21:41;;;;;;;20.47;13.33;;;;;;;;;;4355919;32;318230;-83
2023/11/25 13:24:08;;;;;;;14.13;8.37;;;;;;;;;;4365934;32;317539;-84
2023/11/25 13:26:37;;;;;;;20.90;9.73;;;;;;;;;;4356325;32;317222;-84
2023/11/25 13:29:05;;;;;;;13.07;8.43;;;;;;;;;;4366140;32;334217;-86
2023/11/25 13:31:32;;;;;;;11.60;6.60;;;;;;;;;;4355905;32;317406;-86
2023/11/25 13:34:00;;;;;;;16.80;10.07;;;;;;;;;;4367041;32;317291;-86
2023/11/25 13:36:27;;;;;;;14.27;9.10;;;;;;;;;;4356322;32;318684;-86
2023/11/25 13:38:54;;;;;;;14.67;7.53;;;;;;;;;;4366720;32;317225;-84
2023/11/25 13:41:21;;;;;;;22.67;12.80;;;;;;;;;;4357408;32;317538;-86
2023/11/25 13:43:49;;;;;;;23.10;11.47;;;;;;;;;;4365370;32;317998;-86
2023/11/25 13:46:18;;;;;;;16.83;9.43;;;;;;;;;;4367153;32;318539;-85
2023/11/25 13:48:45;;;;;;;17.50;9.70;;;;;;;;;;4352772;32;417486;-85
2023/11/25 13:51:13;;;;;;;24.00;12.63;;;;;;;;;;4365247;32;317378;-87
2023/11/25 13:53:40;;;;;;;25.60;13.20;;;;;;;;;;4355928;32;319060;-88
2023/11/25 13:56:08;;;;;;;18.97;11.20;;;;;;;;;;4365432;32;318034;-86
2023/11/25 13:58:36;;;;;;;23.27;10.93;;;;;;;;;;4355618;32;318334;-85
2023/11/25 14:01:05;;;;;;;32.27;17.00;;;;;;;;;;4364722;32;318536;-85
2023/11/25 14:03:32;;;;;;;26.70;15.80;;;;;;;;;;4357747;32;318410;-88
2023/11/25 14:05:59;;;;;;;28.67;13.57;;;;;;;;;;4367628;32;317737;-86
2023/11/25 14:08:28;;;;;;;29.30;14.13;;;;;;;;;;4358704;32;318427;-87
2023/11/25 14:10:56;;;;;;;24.47;12.73;;;;;;;;;;4367526;32;328584;-87
2023/11/25 14:13:23;;;;;;;24.77;13.07;;;;;;;;;;4358448;32;317680;-87
2023/11/25 14:15:50;;;;;;;17.57;9.50;;;;;;;;;;4368733;32;318625;-86
2023/11/25 14:18:17;;;;;;;24.90;12.57;;;;;;;;;;4368719;32;320295;-85
2023/11/25 14:20:44;;;;;;;24.67;12.20;;;;;;;;;;4360562;32;318381;-87